Time;durP1;ratioP1;P1;durP2;ratioP2;P2;SDS_P1;SDS_P2;PMS_P1;PMS_P2;Temp;Humidity;BMP_temperature;BMP_pressure;BME280_temperature;BME280_humidity;BME280_pressure;Samples;Min_cycle;Max_cycle;Signal;HPM_P1;HPM_P2
2023/10/15 00:00:21;;;;;;;9.13;2.05;;;8.50;99.90;;;;;;5015190;28;20186;-88
2023/10/15 00:02:49;;;;;;;11.45;2.63;;;8.50;99.90;;;;;;5014868;28;20187;-93
2023/10/15 00:05:27;;;;;;;11.63;2.17;;;8.40;99.90;;;;;;5015117;28;20183;-92
2023/10/15 00:07:54;;;;;;;11.57;2.30;;;8.50;99.90;;;;;;5014737;28;20182;-93
2023/10/15 00:10:25;;;;;;;11.90;2.38;;;8.50;99.90;;;;;;5014524;28;20185;-92
2023/10/15 00:12:52;;;;;;;9.30;1.60;;;8.50;99.90;;;;;;5014711;28;20213;-92
2023/10/15 00:15:20;;;;;;;11.73;2.75;;;8.50;99.90;;;;;;5014490;28;20263;-92
2023/10/15 00:17:50;;;;;;;13.13;2.38;;;8.40;99.90;;;;;;5014618;28;20305;-92
2023/10/15 00:20:21;;;;;;;10.63;1.95;;;8.40;99.90;;;;;;5015580;28;20660;-93
2023/10/15 00:22:48;;;;;;;9.30;2.22;;;8.40;99.90;;;;;;5014091;28;20559;-93
2023/10/15 00:25:15;;;;;;;13.93;2.20;;;8.50;99.90;;;;;;5014752;28;20533;-94
2023/10/15 00:27:42;;;;;;;11.10;2.10;;;8.40;99.90;;;;;;5015591;28;20270;-95
2023/10/15 00:30:18;;;;;;;11.38;2.10;;;8.40;99.90;;;;;;5018231;28;20248;-95
2023/10/15 00:32:45;;;;;;;12.47;2.30;;;8.40;99.90;;;;;;5017937;28;20167;-96
2023/10/15 00:35:19;;;;;;;13.47;2.90;;;8.40;99.90;;;;;;5017482;28;20503;-95
2023/10/15 00:37:54;;;;;;;9.13;2.10;;;8.30;99.90;;;;;;5036646;28;20233;-94
2023/10/15 00:40:25;;;;;;;9.60;2.30;;;8.30;99.90;;;;;;5040816;28;20277;-92
2023/10/15 00:42:52;;;;;;;11.00;2.70;;;8.30;99.90;;;;;;5039768;28;20170;-94
2023/10/15 00:45:20;;;;;;;10.37;2.17;;;8.30;99.90;;;;;;5038014;28;20189;-94
2023/10/15 00:50:47;;;;;;;10.03;2.10;;;8.20;99.90;;;;;;5025485;28;20186;-95
2023/10/15 00:53:26;;;;;;;7.77;1.90;;;8.20;99.90;;;;;;5041153;28;20190;-95
2023/10/15 00:55:55;;;;;;;8.25;1.80;;;8.20;99.90;;;;;;5043919;28;20173;-95
2023/10/15 00:58:32;;;;;;;10.85;2.10;;;8.20;99.90;;;;;;5038533;28;20217;-94
2023/10/15 01:03:49;;;;;;;9.77;1.97;;;8.10;99.90;;;;;;5041149;28;20185;-95
2023/10/15 01:06:44;;;;;;;12.10;2.07;;;8.10;99.90;;;;;;5041114;28;20202;-92
2023/10/15 01:09:27;;;;;;;9.40;2.17;;;8.20;99.90;;;;;;5040922;28;20200;-94
2023/10/15 01:11:56;;;;;;;14.98;2.00;;;8.10;99.90;;;;;;5039475;28;20171;-95
2023/10/15 01:14:44;;;;;;;10.13;1.93;;;8.10;99.90;;;;;;5040427;28;20178;-93
2023/10/15 01:17:17;;;;;;;10.60;2.30;;;8.10;99.90;;;;;;5038926;28;20203;-95
2023/10/15 01:19:42;;;;;;;11.33;2.37;;;8.20;99.90;;;;;;5037178;28;20183;-95
2023/10/15 01:22:18;;;;;;;7.27;2.00;;;8.20;99.90;;;;;;5038949;28;20679;-93
2023/10/15 01:24:53;;;;;;;11.47;2.10;;;8.20;99.90;;;;;;5038409;28;20174;-91
2023/10/15 01:27:28;;;;;;;7.10;1.93;;;8.20;99.90;;;;;;5023561;28;20178;-94
2023/10/15 01:29:55;;;;;;;10.43;2.33;;;8.20;99.90;;;;;;5038556;28;20177;-92
2023/10/15 01:32:40;;;;;;;11.40;2.67;;;8.20;99.90;;;;;;5039690;28;20632;-94
2023/10/15 01:35:10;;;;;;;9.20;2.13;;;8.10;99.90;;;;;;5021945;28;20179;-95
2023/10/15 01:37:41;;;;;;;11.53;2.43;;;8.10;99.90;;;;;;5037441;28;20325;-93
2023/10/15 01:42:41;;;;;;;15.80;2.70;;;8.10;99.90;;;;;;5039352;28;20628;-94
2023/10/15 01:47:46;;;;;;;11.70;2.40;;;8.10;99.90;;;;;;5040637;28;20636;-95
2023/10/15 01:50:15;;;;;;;12.30;2.57;;;8.10;99.90;;;;;;5039564;28;20265;-94
2023/10/15 01:52:44;;;;;;;9.87;2.00;;;8.10;99.90;;;;;;5039318;28;20179;-93
2023/10/15 01:55:13;;;;;;;10.77;2.15;;;8.10;99.90;;;;;;5038220;28;20217;-93
2023/10/15 01:57:41;;;;;;;9.87;1.93;;;8.10;99.90;;;;;;5024409;28;20249;-92
2023/10/15 02:00:14;;;;;;;15.10;3.13;;;8.10;99.90;;;;;;5039414;28;20175;-94
2023/10/15 02:02:42;;;;;;;11.20;2.10;;;8.10;99.90;;;;;;5040493;28;20237;-95
2023/10/15 02:07:58;;;;;;;15.75;2.25;;;8.10;99.90;;;;;;5041660;28;20174;-93
2023/10/15 02:10:29;;;;;;;17.40;3.07;;;8.10;99.90;;;;;;5037891;28;20189;-94
2023/10/15 02:13:04;;;;;;;10.07;1.73;;;8.00;99.90;;;;;;5039107;28;20269;-94
2023/10/15 02:15:39;;;;;;;12.37;2.87;;;8.00;99.90;;;;;;5037450;28;20240;-93
2023/10/15 02:18:14;;;;;;;9.80;2.00;;;8.00;99.90;;;;;;5041325;28;20222;-93
2023/10/15 02:23:11;;;;;;;9.13;2.30;;;7.90;99.90;;;;;;5040271;28;20901;-93
2023/10/15 02:25:57;;;;;;;16.57;2.70;;;8.00;99.90;;;;;;5039692;28;20175;-93
2023/10/15 02:28:27;;;;;;;8.37;2.07;;;8.00;99.90;;;;;;5038395;28;20175;-94
2023/10/15 02:33:31;;;;;;;12.37;2.40;;;7.90;99.90;;;;;;5040586;28;20167;-94
2023/10/15 02:35:59;;;;;;;10.37;2.30;;;7.90;99.90;;;;;;5039542;28;20226;-95
2023/10/15 02:41:17;;;;;;;7.97;2.25;;;8.00;99.90;;;;;;5010830;28;20228;-85
2023/10/15 02:43:48;;;;;;;11.47;2.73;;;8.00;99.90;;;;;;5014583;28;20168;-91
2023/10/15 02:46:21;;;;;;;11.05;2.05;;;8.00;99.90;;;;;;5001060;28;20161;-87
2023/10/15 02:48:48;;;;;;;8.73;2.00;;;8.00;99.90;;;;;;4997303;28;20180;-85
2023/10/15 02:51:23;;;;;;;9.97;1.67;;;8.00;99.90;;;;;;4997292;28;20274;-86
2023/10/15 02:53:53;;;;;;;9.50;2.13;;;8.00;99.90;;;;;;4996409;28;20908;-85
2023/10/15 02:56:22;;;;;;;11.57;2.60;;;8.00;99.90;;;;;;4996032;28;20172;-85
2023/10/15 02:58:50;;;;;;;13.65;2.50;;;8.10;99.90;;;;;;4995946;28;20250;-86
2023/10/15 03:01:20;;;;;;;5.70;1.80;;;8.00;99.90;;;;;;4995469;28;20176;-85
2023/10/15 03:03:50;;;;;;;10.70;2.47;;;8.00;99.90;;;;;;4996663;28;20166;-83
2023/10/15 03:06:34;;;;;;;9.67;2.17;;;8.00;99.90;;;;;;4996463;28;20266;-86
2023/10/15 03:09:00;;;;;;;15.87;2.30;;;8.00;99.90;;;;;;5000241;28;20160;-84
2023/10/15 03:11:32;;;;;;;14.73;2.43;;;8.00;99.90;;;;;;4980073;28;20193;-85
2023/10/15 03:14:00;;;;;;;9.57;2.33;;;7.90;99.90;;;;;;4979816;28;20180;-86
2023/10/15 03:16:30;;;;;;;9.27;2.10;;;7.90;99.90;;;;;;4978846;28;20180;-86
2023/10/15 03:19:06;;;;;;;10.53;2.10;;;7.90;99.90;;;;;;4980109;28;20200;-86
2023/10/15 03:21:38;;;;;;;10.60;1.90;;;7.90;99.90;;;;;;4979949;28;20180;-91
2023/10/15 03:24:04;;;;;;;12.47;2.20;;;7.90;99.90;;;;;;4978714;28;20208;-85
2023/10/15 03:26:33;;;;;;;7.43;2.00;;;7.80;99.90;;;;;;4979576;28;20184;-84
2023/10/15 03:28:59;;;;;;;10.27;2.30;;;7.80;99.90;;;;;;4981038;28;20200;-86
2023/10/15 03:31:30;;;;;;;8.73;2.03;;;7.80;99.90;;;;;;4980391;28;20169;-86
2023/10/15 03:34:13;;;;;;;12.93;2.70;;;7.80;99.90;;;;;;4979431;28;20191;-86
2023/10/15 03:40:10;;;;;;;11.20;2.97;;;7.70;99.90;;;;;;4982997;28;20235;-85
2023/10/15 03:44:44;;;;;;;7.73;1.53;;;7.70;99.90;;;;;;5000173;28;20203;-85
2023/10/15 03:47:11;;;;;;;20.00;2.27;;;7.70;99.90;;;;;;4998268;28;20209;-85
2023/10/15 03:49:37;;;;;;;10.07;2.17;;;7.70;99.90;;;;;;5000245;28;20176;-91
2023/10/15 03:52:14;;;;;;;11.77;2.00;;;7.70;99.90;;;;;;4998949;28;20206;-86
2023/10/15 03:54:47;;;;;;;12.20;2.40;;;7.80;99.90;;;;;;5007704;28;20171;-85
2023/10/15 03:59:52;;;;;;;7.73;2.20;;;7.70;99.90;;;;;;4989368;28;20679;-86
2023/10/15 04:02:23;;;;;;;8.50;1.70;;;7.70;99.90;;;;;;4984553;28;20247;-93
2023/10/15 04:05:12;;;;;;;12.87;2.37;;;7.70;99.90;;;;;;4988457;28;20160;-88
2023/10/15 04:07:46;;;;;;;10.87;2.43;;;7.80;99.90;;;;;;4984348;28;20239;-86
2023/10/15 04:10:12;;;;;;;7.63;1.87;;;7.80;99.90;;;;;;4981677;28;20185;-88
2023/10/15 04:12:41;;;;;;;10.53;2.00;;;7.70;99.90;;;;;;4979497;28;20320;-84
2023/10/15 04:15:16;;;;;;;10.93;1.80;;;7.80;99.90;;;;;;4979225;28;20200;-89
2023/10/15 04:17:48;;;;;;;9.40;1.67;;;7.80;99.90;;;;;;4977751;28;20554;-85
2023/10/15 04:20:15;;;;;;;7.07;1.33;;;7.80;99.90;;;;;;4977939;28;20177;-88
2023/10/15 04:22:46;;;;;;;9.13;1.47;;;7.80;99.90;;;;;;4976963;28;20263;-86
2023/10/15 04:25:23;;;;;;;6.70;1.50;;;7.90;99.90;;;;;;4977544;28;20175;-85
2023/10/15 04:27:52;;;;;;;10.33;1.73;;;7.90;99.90;;;;;;4977365;28;20188;-86
2023/10/15 04:30:28;;;;;;;8.50;1.37;;;7.80;99.90;;;;;;4978406;28;20260;-86
2023/10/15 04:32:56;;;;;;;6.97;1.63;;;7.80;99.90;;;;;;4976976;28;20516;-83
2023/10/15 04:35:25;;;;;;;9.43;1.60;;;7.80;99.90;;;;;;4979484;28;20173;-85
2023/10/15 04:37:57;;;;;;;4.60;1.10;;;7.80;99.90;;;;;;4979896;28;20662;-85
2023/10/15 04:40:23;;;;;;;7.57;1.70;;;7.90;99.90;;;;;;4980649;28;20195;-84
2023/10/15 04:42:52;;;;;;;6.83;1.37;;;7.80;99.90;;;;;;4981244;28;20252;-87
2023/10/15 04:45:41;;;;;;;7.47;1.37;;;7.80;99.90;;;;;;4983211;28;20517;-88
2023/10/15 04:48:14;;;;;;;3.43;1.17;;;7.80;99.90;;;;;;4982256;28;20180;-84
2023/10/15 04:50:43;;;;;;;8.07;1.30;;;7.80;99.90;;;;;;4981159;28;20168;-87
2023/10/15 04:53:13;;;;;;;7.40;1.47;;;7.70;99.90;;;;;;4980953;28;20192;-86
2023/10/15 04:55:40;;;;;;;6.97;1.37;;;7.70;99.90;;;;;;4980554;28;20183;-85
2023/10/15 04:58:06;;;;;;;4.70;1.25;;;7.70;99.90;;;;;;4981692;28;20572;-85
2023/10/15 05:00:33;;;;;;;5.45;0.95;;;7.70;99.90;;;;;;4982309;28;20236;-85
2023/10/15 05:02:59;;;;;;;3.50;1.10;;;7.70;99.90;;;;;;4981174;28;20478;-85
2023/10/15 05:05:25;;;;;;;4.17;1.20;;;7.70;99.90;;;;;;4980293;28;20181;-86
2023/10/15 05:07:50;;;;;;;4.20;1.20;;;7.70;99.90;;;;;;4978280;28;20528;-84
2023/10/15 05:10:16;;;;;;;6.77;1.63;;;7.70;99.90;;;;;;4978706;28;20188;-84
2023/10/15 05:12:42;;;;;;;5.85;1.58;;;7.70;99.90;;;;;;4978009;28;20223;-85
2023/10/15 05:15:13;;;;;;;4.57;1.05;;;7.60;99.90;;;;;;4978785;28;20181;-84
2023/10/15 05:17:42;;;;;;;6.38;1.05;;;7.60;99.90;;;;;;4977628;28;20278;-85
2023/10/15 05:20:11;;;;;;;4.53;1.20;;;7.70;99.90;;;;;;4977734;28;20177;-85
2023/10/15 05:22:37;;;;;;;3.85;1.05;;;7.60;99.90;;;;;;4977731;28;20331;-90
2023/10/15 05:25:04;;;;;;;4.33;1.00;;;7.70;99.90;;;;;;4977885;28;20267;-85
2023/10/15 05:27:32;;;;;;;5.25;1.45;;;7.70;99.90;;;;;;4979645;28;20169;-86
2023/10/15 05:29:59;;;;;;;3.83;1.50;;;7.70;99.90;;;;;;4980020;28;20169;-87
2023/10/15 05:32:26;;;;;;;5.60;1.60;;;7.70;99.90;;;;;;4978546;28;20192;-85
2023/10/15 05:34:52;;;;;;;8.27;1.40;;;7.70;99.90;;;;;;4979899;28;20157;-85
2023/10/15 05:37:17;;;;;;;4.20;1.05;;;7.60;99.90;;;;;;4977904;28;20207;-85
2023/10/15 05:39:43;;;;;;;4.73;1.00;;;7.60;99.90;;;;;;4977555;28;20211;-86
2023/10/15 05:42:09;;;;;;;5.10;1.40;;;7.60;99.90;;;;;;4977443;28;20223;-85
2023/10/15 05:44:35;;;;;;;3.67;1.27;;;7.60;99.90;;;;;;4978461;28;20599;-86
2023/10/15 05:47:01;;;;;;;3.07;0.70;;;7.60;99.90;;;;;;4979749;28;20196;-85
2023/10/15 05:49:27;;;;;;;4.60;1.30;;;7.50;99.90;;;;;;4977762;28;20180;-85
2023/10/15 05:51:53;;;;;;;3.87;0.93;;;7.50;99.90;;;;;;4980458;28;20169;-86
2023/10/15 05:54:20;;;;;;;4.80;0.87;;;7.50;99.90;;;;;;4979486;28;20168;-84
2023/10/15 05:56:46;;;;;;;5.13;1.00;;;7.50;99.90;;;;;;4979031;28;20187;-84
2023/10/15 05:59:12;;;;;;;5.77;1.20;;;7.50;99.90;;;;;;4979364;28;20568;-85
2023/10/15 06:01:38;;;;;;;3.30;0.70;;;7.50;99.90;;;;;;4980607;28;20180;-88
2023/10/15 06:04:04;;;;;;;3.37;0.70;;;7.50;99.90;;;;;;4979100;28;20196;-85
2023/10/15 06:06:29;;;;;;;4.60;1.00;;;7.50;99.90;;;;;;4979461;28;20180;-86
2023/10/15 06:08:59;;;;;;;4.77;1.17;;;7.60;99.90;;;;;;4980763;28;20232;-86
2023/10/15 06:11:26;;;;;;;4.83;0.87;;;7.50;99.90;;;;;;4980461;28;20223;-84
2023/10/15 06:13:53;;;;;;;3.10;0.63;;;7.50;99.90;;;;;;4978716;28;20172;-85
2023/10/15 06:16:18;;;;;;;3.10;0.93;;;7.50;99.90;;;;;;4979124;28;20292;-87
2023/10/15 06:18:44;;;;;;;2.40;0.63;;;7.50;99.90;;;;;;4979591;28;20614;-85
2023/10/15 06:21:10;;;;;;;4.27;0.87;;;7.50;99.90;;;;;;4979873;28;20514;-87
2023/10/15 06:23:35;;;;;;;3.73;0.90;;;7.50;99.90;;;;;;4979052;28;20189;-85
2023/10/15 06:26:02;;;;;;;4.60;1.10;;;7.50;99.90;;;;;;4972454;28;20180;-86
2023/10/15 06:28:28;;;;;;;3.90;1.10;;;7.60;99.90;;;;;;4979021;28;20177;-87
2023/10/15 06:30:54;;;;;;;3.17;0.80;;;7.60;99.90;;;;;;4978834;28;20185;-87
2023/10/15 06:33:20;;;;;;;4.17;0.87;;;7.60;99.90;;;;;;4980418;28;20169;-85
2023/10/15 06:35:46;;;;;;;4.97;1.00;;;7.60;99.90;;;;;;4979457;28;20698;-85
2023/10/15 06:38:11;;;;;;;2.93;0.73;;;7.60;99.90;;;;;;4978360;28;20214;-84
2023/10/15 06:40:39;;;;;;;4.23;1.00;;;7.70;99.90;;;;;;4976922;28;20785;-85
2023/10/15 06:43:06;;;;;;;5.07;1.00;;;7.70;99.90;;;;;;4977271;28;20188;-86
2023/10/15 06:45:32;;;;;;;3.87;1.03;;;7.70;99.90;;;;;;4979665;28;20199;-86
2023/10/15 06:47:58;;;;;;;4.13;1.10;;;7.70;99.90;;;;;;4977957;28;20185;-85
2023/10/15 06:50:23;;;;;;;3.70;0.87;;;7.80;99.90;;;;;;4978800;28;20173;-86
2023/10/15 06:52:49;;;;;;;3.13;0.77;;;7.80;99.90;;;;;;4977624;28;20188;-86
2023/10/15 06:55:19;;;;;;;2.97;0.80;;;7.80;99.90;;;;;;4977322;28;20592;-85
2023/10/15 06:57:46;;;;;;;4.97;0.70;;;7.80;99.90;;;;;;4978788;28;20632;-86
2023/10/15 07:00:12;;;;;;;3.17;0.80;;;7.80;99.90;;;;;;4977866;28;20188;-85
2023/10/15 07:02:39;;;;;;;2.20;0.83;;;7.90;99.90;;;;;;4978494;28;20197;-84
2023/10/15 07:05:06;;;;;;;3.47;1.00;;;8.00;99.90;;;;;;4978977;28;20169;-89
2023/10/15 07:07:35;;;;;;;3.33;0.80;;;8.00;99.90;;;;;;4977230;28;20198;-86
2023/10/15 07:10:05;;;;;;;2.67;0.60;;;8.00;99.90;;;;;;4978089;28;20526;-85
2023/10/15 07:12:32;;;;;;;6.53;1.00;;;8.00;99.90;;;;;;4976590;28;20188;-86
2023/10/15 07:14:58;;;;;;;3.50;0.80;;;8.10;99.90;;;;;;4977656;28;20203;-86
2023/10/15 07:17:23;;;;;;;4.17;0.80;;;8.10;99.90;;;;;;4977951;28;20208;-85
2023/10/15 07:19:49;;;;;;;5.70;1.03;;;8.20;99.90;;;;;;4977724;28;20179;-85
2023/10/15 07:22:15;;;;;;;4.37;0.70;;;8.30;99.90;;;;;;4975696;28;20263;-86
2023/10/15 07:24:41;;;;;;;1.83;0.80;;;8.40;99.90;;;;;;4975024;28;20173;-86
2023/10/15 07:27:07;;;;;;;1.80;0.70;;;8.50;99.90;;;;;;4976120;28;20187;-85
2023/10/15 07:29:33;;;;;;;4.43;0.90;;;8.60;99.90;;;;;;4975193;28;20208;-84
2023/10/15 07:31:59;;;;;;;4.80;0.90;;;8.60;99.90;;;;;;4976337;28;20177;-85
2023/10/15 07:34:26;;;;;;;3.43;1.07;;;8.70;99.90;;;;;;4979040;28;20188;-86
2023/10/15 07:36:56;;;;;;;3.73;1.07;;;8.60;99.90;;;;;;4982432;28;20200;-96
2023/10/15 07:39:31;;;;;;;4.20;0.90;;;8.40;99.90;;;;;;4982483;28;20200;-94
2023/10/15 07:42:13;;;;;;;4.00;1.03;;;8.30;99.90;;;;;;5113838;27;20549;-95
2023/10/15 07:44:39;;;;;;;5.00;0.90;;;8.30;99.90;;;;;;5121196;28;20164;-95
2023/10/15 07:47:05;;;;;;;3.20;0.83;;;8.30;99.90;;;;;;5605258;22;22223;-93
2023/10/15 07:49:34;;;;;;;3.43;0.80;;;8.30;99.90;;;;;;5072754;28;20177;-96
2023/10/15 07:52:00;;;;;;;2.47;0.60;;;8.40;99.90;;;;;;5073866;28;20264;-93
2023/10/15 07:54:26;;;;;;;0.97;0.50;;;8.40;99.90;;;;;;5075080;28;20192;-91
2023/10/15 07:56:54;;;;;;;3.30;0.90;;;8.50;99.90;;;;;;5074593;28;20173;-93
2023/10/15 07:59:20;;;;;;;2.80;0.70;;;8.60;99.90;;;;;;5073037;28;20192;-95
2023/10/15 08:01:47;;;;;;;5.63;0.87;;;8.60;99.90;;;;;;5074386;28;20205;-95
2023/10/15 08:04:13;;;;;;;3.03;0.70;;;8.60;99.90;;;;;;5072187;28;20178;-93
2023/10/15 08:06:40;;;;;;;3.40;1.10;;;8.70;99.90;;;;;;5073573;28;20227;-93
2023/10/15 08:09:10;;;;;;;3.73;0.73;;;8.80;99.90;;;;;;5073318;28;20178;-96
2023/10/15 08:11:35;;;;;;;4.83;1.37;;;8.80;99.90;;;;;;5072890;28;20176;-94
2023/10/15 08:14:01;;;;;;;8.33;1.50;;;8.80;99.90;;;;;;5073501;28;20249;-95
2023/10/15 08:16:28;;;;;;;2.00;0.70;;;8.80;99.90;;;;;;5072846;28;20268;-91
2023/10/15 08:18:54;;;;;;;2.43;0.73;;;8.90;99.90;;;;;;5072128;28;20181;-94
2023/10/15 08:21:21;;;;;;;3.47;0.90;;;8.90;99.90;;;;;;5071643;28;20216;-94
2023/10/15 08:23:47;;;;;;;5.13;1.27;;;8.80;99.90;;;;;;5072390;28;20207;-94
2023/10/15 08:26:13;;;;;;;5.07;1.10;;;8.80;99.90;;;;;;5073665;28;20193;-93
2023/10/15 08:28:42;;;;;;;5.75;1.20;;;8.80;99.90;;;;;;5072891;28;20608;-94
2023/10/15 08:31:08;;;;;;;4.43;1.07;;;8.80;99.90;;;;;;5071748;28;20180;-95
2023/10/15 08:33:33;;;;;;;6.53;0.93;;;8.80;99.90;;;;;;5073891;28;20169;-92
2023/10/15 08:36:02;;;;;;;33.40;13.10;;;8.90;99.90;;;;;;5075303;28;20181;-93
2023/10/15 08:38:34;;;;;;;7.07;2.10;;;8.90;99.90;;;;;;5072767;28;20184;-95
2023/10/15 08:41:08;;;;;;;4.50;1.17;;;9.00;99.90;;;;;;5074010;28;20217;-94
2023/10/15 08:43:34;;;;;;;5.22;1.30;;;9.00;99.90;;;;;;5075383;28;20522;-92
2023/10/15 08:46:09;;;;;;;1.83;0.80;;;8.90;99.90;;;;;;5072849;28;20178;-93
2023/10/15 08:48:41;;;;;;;2.67;0.90;;;8.90;99.90;;;;;;5072112;28;20233;-95
2023/10/15 08:51:12;;;;;;;1.73;0.90;;;9.00;99.90;;;;;;5072312;28;20170;-94
2023/10/15 08:53:41;;;;;;;2.17;0.75;;;9.10;99.90;;;;;;5058483;28;20534;-94
2023/10/15 08:56:09;;;;;;;1.93;0.60;;;9.10;99.90;;;;;;5058511;28;20268;-96
2023/10/15 08:58:36;;;;;;;4.13;0.83;;;9.20;99.90;;;;;;5058160;28;20646;-93
2023/10/15 09:01:04;;;;;;;3.22;0.93;;;9.20;99.90;;;;;;5058773;28;20217;-92
2023/10/15 09:03:30;;;;;;;1.77;0.70;;;9.30;99.90;;;;;;5057009;28;20228;-94
2023/10/15 09:05:56;;;;;;;2.53;0.97;;;9.30;99.90;;;;;;5059304;28;20193;-94
2023/10/15 09:08:23;;;;;;;3.90;1.33;;;9.30;99.90;;;;;;5059755;28;20228;-95
2023/10/15 09:10:52;;;;;;;3.10;0.90;;;9.40;99.90;;;;;;5057669;28;20205;-95
2023/10/15 09:13:21;;;;;;;2.53;0.97;;;9.40;99.90;;;;;;5058489;28;20245;-94
2023/10/15 09:15:50;;;;;;;2.20;1.03;;;9.40;99.90;;;;;;5058621;28;20213;-92
2023/10/15 09:18:18;;;;;;;3.07;1.07;;;9.50;99.90;;;;;;5057956;28;20231;-96
2023/10/15 09:20:46;;;;;;;3.17;0.70;;;9.50;99.90;;;;;;5058946;28;20263;-94
2023/10/15 09:23:11;;;;;;;4.93;1.00;;;9.50;99.90;;;;;;5057254;28;20220;-95
2023/10/15 09:25:38;;;;;;;2.47;0.80;;;9.60;99.90;;;;;;5057504;28;20553;-93
2023/10/15 09:28:05;;;;;;;1.48;0.68;;;9.70;99.90;;;;;;5057244;28;20181;-94
2023/10/15 09:30:30;;;;;;;1.67;0.82;;;9.70;99.90;;;;;;5057342;28;20572;-94
2023/10/15 09:32:59;;;;;;;6.05;1.23;;;9.80;99.90;;;;;;5057888;28;20244;-96
2023/10/15 09:35:25;;;;;;;2.75;1.13;;;9.80;99.90;;;;;;5060117;28;20174;-92
2023/10/15 09:37:53;;;;;;;2.03;0.80;;;9.80;99.90;;;;;;5059646;28;20181;-94
2023/10/15 09:40:31;;;;;;;2.90;0.77;;;9.60;99.90;;;;;;5057571;28;20213;-95
2023/10/15 09:42:59;;;;;;;4.13;1.40;;;9.50;99.90;;;;;;5059266;28;20173;-95
2023/10/15 09:45:25;;;;;;;2.13;0.90;;;9.50;99.90;;;;;;5058967;28;20668;-94
2023/10/15 09:47:57;;;;;;;5.28;1.05;;;9.40;99.90;;;;;;5057016;28;20257;-96
2023/10/15 09:50:28;;;;;;;5.78;1.35;;;9.40;99.90;;;;;;5058765;28;20178;-96
2023/10/15 09:52:56;;;;;;;2.15;0.80;;;9.40;99.90;;;;;;5054896;28;20195;-95
2023/10/15 09:55:26;;;;;;;5.22;1.35;;;9.40;99.90;;;;;;5052960;28;20500;-93
2023/10/15 09:58:04;;;;;;;2.25;0.70;;;9.40;99.90;;;;;;5051693;28;20177;-94
2023/10/15 10:03:29;;;;;;;2.25;1.00;;;9.30;99.90;;;;;;5056667;28;20174;-94
2023/10/15 10:06:15;;;;;;;4.03;1.00;;;9.40;99.90;;;;;;5058370;28;20166;-95
2023/10/15 10:09:24;;;;;;;3.27;0.67;;;9.50;99.90;;;;;;5057845;28;20209;-95
2023/10/15 10:12:07;;;;;;;3.43;0.90;;;9.50;99.90;;;;;;5058483;28;20514;-95
2023/10/15 10:15:02;;;;;;;4.10;0.83;;;9.40;99.90;;;;;;5057972;28;20178;-94
2023/10/15 10:17:29;;;;;;;2.33;0.73;;;9.30;99.90;;;;;;5056779;28;20188;-93
2023/10/15 10:20:00;;;;;;;2.73;0.93;;;9.30;99.90;;;;;;5057694;28;20228;-93
2023/10/15 10:22:27;;;;;;;1.80;0.77;;;9.30;99.90;;;;;;5059666;28;20182;-94
2023/10/15 10:24:59;;;;;;;2.40;0.70;;;9.30;99.90;;;;;;5057356;28;20265;-95
2023/10/15 10:27:26;;;;;;;1.73;0.70;;;9.30;99.90;;;;;;5057316;28;20170;-95
2023/10/15 10:30:22;;;;;;;2.20;0.63;;;9.20;99.90;;;;;;5055887;28;20174;-95
2023/10/15 10:32:48;;;;;;;5.97;0.70;;;9.30;99.90;;;;;;5063933;28;20181;-96
2023/10/15 10:35:18;;;;;;;3.65;1.50;;;9.20;99.90;;;;;;5058311;28;20784;-96
2023/10/15 10:38:05;;;;;;;1.00;0.70;;;9.20;99.90;;;;;;5081686;22;20724;-95
2023/10/15 10:41:07;;;;;;;1.42;0.60;;;9.20;99.90;;;;;;5084500;28;20234;-95
2023/10/15 10:43:33;;;;;;;1.55;0.90;;;9.40;99.90;;;;;;5087333;28;20240;-96
2023/10/15 10:46:02;;;;;;;1.07;0.63;;;9.70;99.90;;;;;;5078050;28;20188;-96
2023/10/15 10:48:33;;;;;;;2.17;0.60;;;9.80;99.90;;;;;;5088479;28;20174;-92
2023/10/15 10:51:11;;;;;;;5.40;0.90;;;9.90;99.90;;;;;;5116738;22;20575;-96
2023/10/15 10:54:04;;;;;;;1.75;0.60;;;9.90;99.90;;;;;;5085049;28;20208;-96
2023/10/15 10:56:39;;;;;;;1.77;0.57;;;9.90;99.90;;;;;;5063653;28;20177;-93
2023/10/15 10:59:09;;;;;;;2.38;0.70;;;10.00;99.90;;;;;;5075644;28;20208;-94
2023/10/15 11:01:37;;;;;;;2.83;0.70;;;10.10;99.90;;;;;;5076449;28;20285;-94
2023/10/15 11:04:09;;;;;;;4.05;0.70;;;10.00;99.90;;;;;;5074862;28;20184;-93
2023/10/15 11:06:42;;;;;;;1.83;0.65;;;10.00;99.90;;;;;;5075066;28;20179;-96
2023/10/15 11:09:22;;;;;;;4.65;0.80;;;9.90;99.90;;;;;;5074448;28;20173;-92
2023/10/15 11:11:50;;;;;;;2.15;0.63;;;9.80;99.90;;;;;;5075416;28;20197;-94
2023/10/15 11:14:18;;;;;;;2.60;0.60;;;9.90;99.90;;;;;;5074790;28;20512;-95
2023/10/15 11:16:44;;;;;;;2.80;0.70;;;10.10;99.90;;;;;;5074813;28;20208;-96
2023/10/15 11:19:29;;;;;;;4.32;0.65;;;10.20;99.90;;;;;;5075066;28;20215;-93
2023/10/15 11:21:55;;;;;;;3.10;0.82;;;10.40;99.90;;;;;;5075174;28;20295;-94
2023/10/15 11:24:26;;;;;;;4.25;0.88;;;10.40;99.90;;;;;;5075303;28;20173;-93
2023/10/15 11:26:58;;;;;;;3.42;0.80;;;10.30;99.90;;;;;;5074554;28;20268;-95
2023/10/15 11:29:26;;;;;;;2.20;0.68;;;10.30;99.90;;;;;;5074311;28;20488;-92
2023/10/15 11:31:57;;;;;;;1.30;0.55;;;10.20;99.90;;;;;;5091197;28;20177;-93
2023/10/15 11:34:25;;;;;;;2.33;0.32;;;10.20;99.90;;;;;;5074870;28;20174;-91
2023/10/15 11:36:55;;;;;;;3.67;0.47;;;10.20;99.90;;;;;;5074197;28;20589;-93
2023/10/15 11:39:47;;;;;;;2.25;0.50;;;10.20;99.90;;;;;;5074378;28;20206;-92
2023/10/15 11:42:14;;;;;;;4.00;0.60;;;10.30;99.90;;;;;;5074760;28;20258;-93
2023/10/15 11:44:42;;;;;;;1.85;0.68;;;10.30;99.90;;;;;;5074398;28;20611;-96
2023/10/15 11:47:19;;;;;;;3.53;0.50;;;10.20;99.90;;;;;;5074036;28;20212;-95
2023/10/15 11:49:46;;;;;;;1.45;0.40;;;10.30;99.90;;;;;;5073114;28;20620;-94
2023/10/15 11:52:18;;;;;;;3.22;0.50;;;10.30;99.90;;;;;;5074136;28;20620;-93
2023/10/15 11:54:54;;;;;;;3.20;0.60;;;10.50;99.90;;;;;;5074115;28;20604;-93
2023/10/15 11:57:24;;;;;;;3.20;0.80;;;10.50;99.90;;;;;;5073990;28;20176;-93
2023/10/15 11:59:54;;;;;;;0.65;0.30;;;10.60;99.90;;;;;;5074135;28;20391;-93
2023/10/15 12:02:20;;;;;;;0.65;0.40;;;10.50;99.90;;;;;;5073978;28;20198;-93
2023/10/15 12:04:51;;;;;;;1.70;1.08;;;10.40;99.90;;;;;;5073593;28;20173;-92
2023/10/15 12:07:21;;;;;;;0.60;0.60;;;10.40;99.90;;;;;;5073878;28;20177;-94
2023/10/15 12:09:56;;;;;;;2.30;1.48;;;10.60;99.90;;;;;;5073756;28;20196;-91
2023/10/15 12:12:21;;;;;;;1.73;0.70;;;10.60;99.90;;;;;;5073981;28;20177;-93
2023/10/15 12:14:47;;;;;;;1.33;0.90;;;10.60;99.90;;;;;;5073647;28;20231;-92
2023/10/15 12:17:15;;;;;;;2.00;1.20;;;10.60;99.90;;;;;;5073760;28;20173;-92
2023/10/15 12:19:44;;;;;;;4.25;0.70;;;10.70;99.90;;;;;;5073742;28;20173;-92
2023/10/15 12:22:14;;;;;;;1.23;0.60;;;10.60;99.90;;;;;;5073513;28;20254;-92
2023/10/15 12:24:40;;;;;;;1.35;0.57;;;10.70;99.90;;;;;;5073671;28;20197;-92
2023/10/15 12:27:06;;;;;;;1.55;0.60;;;10.80;99.90;;;;;;5074060;28;20190;-93
2023/10/15 12:29:38;;;;;;;2.38;0.60;;;11.00;99.90;;;;;;5094588;28;20543;-92
2023/10/15 12:32:07;;;;;;;4.57;0.82;;;11.10;99.90;;;;;;5094379;28;20506;-93
2023/10/15 12:34:33;;;;;;;3.55;0.80;;;11.20;99.90;;;;;;5076995;28;20272;-92
2023/10/15 12:36:59;;;;;;;2.25;0.70;;;11.30;99.90;;;;;;5076435;28;20265;-93
2023/10/15 12:39:29;;;;;;;1.10;0.40;;;11.30;99.90;;;;;;5076417;28;20284;-93
2023/10/15 12:41:58;;;;;;;1.95;0.50;;;11.40;99.90;;;;;;5074072;28;20209;-93
2023/10/15 12:44:26;;;;;;;1.25;0.60;;;11.40;99.90;;;;;;5077396;28;20707;-91
2023/10/15 12:47:00;;;;;;;1.40;0.60;;;11.50;99.90;;;;;;5062794;28;20559;-93
2023/10/15 12:49:27;;;;;;;4.43;0.77;;;11.50;99.90;;;;;;5072998;28;20180;-95
2023/10/15 12:51:53;;;;;;;0.82;0.50;;;11.40;99.90;;;;;;5076868;28;20499;-93
2023/10/15 12:54:18;;;;;;;3.08;0.90;;;11.30;99.90;;;;;;5077032;28;20186;-92
2023/10/15 12:56:50;;;;;;;3.08;0.80;;;11.30;99.90;;;;;;5077367;28;20634;-94
2023/10/15 12:59:17;;;;;;;2.95;0.70;;;11.40;99.90;;;;;;5068498;28;20173;-92
2023/10/15 13:01:43;;;;;;;2.47;0.70;;;11.30;99.90;;;;;;5076591;28;20300;-92
2023/10/15 13:04:09;;;;;;;2.05;0.50;;;11.10;99.90;;;;;;5076552;28;20558;-93
2023/10/15 13:06:35;;;;;;;1.10;0.70;;;11.10;99.90;;;;;;5076650;28;20267;-92
2023/10/15 13:09:08;;;;;;;5.03;0.73;;;11.10;99.90;;;;;;5076587;28;20272;-93
2023/10/15 13:11:38;;;;;;;4.10;1.13;;;11.10;99.90;;;;;;5059968;28;20174;-94
2023/10/15 13:14:07;;;;;;;1.73;0.70;;;11.00;99.90;;;;;;5057579;28;20166;-95
2023/10/15 13:16:33;;;;;;;2.22;0.93;;;11.00;99.90;;;;;;5056250;28;20205;-88
2023/10/15 13:18:59;;;;;;;1.58;0.75;;;11.00;99.90;;;;;;5056351;28;20189;-89
2023/10/15 13:21:25;;;;;;;7.25;1.23;;;11.00;99.90;;;;;;5070254;28;20564;-90
2023/10/15 13:23:50;;;;;;;2.35;1.08;;;11.10;99.90;;;;;;5056257;28;20181;-88
2023/10/15 13:26:16;;;;;;;5.80;1.10;;;11.00;99.90;;;;;;5067939;28;20177;-91
2023/10/15 13:28:47;;;;;;;2.17;0.50;;;10.90;99.90;;;;;;5076279;28;20181;-91
2023/10/15 13:31:15;;;;;;;4.70;0.63;;;10.80;99.90;;;;;;5076214;28;20177;-92
2023/10/15 13:33:41;;;;;;;1.42;0.70;;;10.70;99.90;;;;;;5075931;28;20272;-93
2023/10/15 13:36:08;;;;;;;3.80;0.90;;;10.70;99.90;;;;;;5076267;28;20642;-92
2023/10/15 13:38:37;;;;;;;1.95;0.68;;;10.60;99.90;;;;;;5075906;28;20242;-96